LFRM/LME METAR and TAF weather

Enter ICAO airport designator
Station Type Date Time Source
LFRM METAR 2024/04/18 08:00 UTC NOAA

LFRM 180800Z AUTO 02012KT 330V050 9999 FEW024 09/04 Q1021 NOSIG


Station Type Date Time Source
LFRM Decoded METAR 2024/04/18 08:00 UTC NOAA

Le Mans, France (LFRM) 47-56N 000-12E 52M
Apr 18, 2024 - 04:00 AM EDT / 2024.04.18 0800 UTC
Wind: from the NNE (020 degrees) at 14 MPH (12 KT) (direction variable):0
Visibility: greater than 7 mile(s):0
Sky conditions: mostly clear
Temperature: 48 F (9 C)
Dew Point: 39 F (4 C)
Relative Humidity: 70%
Pressure (altimeter): 30.15 in. Hg (1021 hPa)
ob: LFRM 180800Z AUTO 02012KT 330V050 9999 FEW024 09/04 Q1021 NOSIG
cycle: 8

Station Type Date Time Source
LFRM TAF 2024/04/18 21:33 UTC NOAA